Terminal Aerodrome Forecast
Issued by NWS Twin Cities, MN

Home | Current Version | Previous Version | Graphics & Text | Print | Product List | Glossary On
Versions: 1 2 3 4 5 6 7 8 9 10 11 12 13 14 15
000
FTUS43 KMPX 261139
TAFEAU
TAF
KEAU 261139Z 2612/2712 07009KT P6SM OVC010
      TEMPO 2612/2614 OVC008
     FM261900 07009KT P6SM OVC020
     FM262200 07009KT P6SM OVC035
     FM270400 07009KT P6SM SCT040 BKN150=

USA.gov is the U.S. government's official web portal to all federal, state and local government web resources and services.